Barrow: Past 24 Hour Conditions

 

Coral Harbour Airport

04:00 AM EST 19 April 2014
This table is a summary of hourly weather conditions for the past 24 hours.
Date / Time
(EST)
Wind(knots) Conditions Visibility(km) Pressure(kPa) Air tempC) Relative humidity(%) Dew pointC) Wind Chill
19 April 2014
4:00 NW 12 Light Snow 13 101.6 -13 77 -16 -22
3:00 NW 15 gust 20 Light Snow 6 101.6 -13 76 -16 -23
2:00 N/A N/A N/A N/A N/A N/A N/A *
1:00 W 17 gust 25 Light Snow 6 101.6 -13 77 -16 -24
0:00 WNW 14 gust 20 Light Snow 10 101.6 -13 79 -16 -23
18 April 2014
23:00 WNW 10 Light Snow 19 101.7 -13 78 -16 -21
22:00 W 17 Drifting Snow 24 101.7 -13 78 -16 -24
21:00 WNW 11 gust 21 Drifting Snow 19 101.8 -13 76 -16 -22
20:00 NNW 22 Drifting Snow 19 101.8 -14 77 -17 -26
19:00 W 12 Mainly Sunny 24 101.9 -14 75 -18 -24
18:00 W 20 Drifting Snow 24 101.9 -12 69 -17 -23
17:00 W 21 gust 26 Drifting Snow 24 101.9 -12 71 -16 -24
16:00 W 19 gust 24 Drifting Snow 24 102.0 -12 68 -17 -22
15:00 W 7 Mainly Sunny 24 102.0 -12 62 -18 -18
14:00 NW 11 Partly Cloudy 24 102.0 -13 67 -18 -22
13:00 calm Mostly Cloudy 24 102.0 -10 58 -17 *
12:00 NW 9 Mostly Cloudy 24 102.0 -11 58 -17 -18
11:00 NW 18 Mostly Cloudy 24 101.9 -11 59 -18 -22
10:00 NW 16 Mostly Cloudy 24 101.9 -13 64 -18 -23
9:00 NNW 12 Mostly Cloudy 24 101.9 -13 63 -19 -22
8:00 calm Mostly Cloudy 24 101.9 -15 66 -20 *
7:00 NNW 17 Mostly Cloudy 24 101.9 -16 65 -21 -27
6:00 NW 12 Ice Crystals 24 101.8 -18 67 -22 -28
5:00 NNW 17 Ice Crystals 24 101.8 -18 71 -22 -30
4:00 N/A N/A N/A N/A N/A N/A N/A *
 
Map of Arctic - Eastern Arctic marine weather areas Baker Lake Airport Chesterfield Inlet Airport Coral Harbour Airport Gjoa Haven Airport Kugaaruk Airport Rankin Inlet Airport Shepherd Bay Airport Whale Cove Airport Arctic Bay Brevoort Island Qikiqtarjuaq Airport Cape Dorset Airport Cape Dyer Cape Hooper Clyde Airport Grise Fiord Airport Hall Beach Airport Igloolik Airport Iqaluit Airport Longstaff Bluff Pangnirtung Airport Pond Inlet Airport Repulse Bay Airport Resolute Airport Resolution Island Rowley Island Airport Taloyoak Airport Wager Bay Akulivik Airport Ivujivik Airport Puvirnituq Airport Kangiqsujuaq Airport Kangirsuk Airport Quaqtaq Airport Tasiujaq Airport Cape Kakkiviak Cape Kiglapait Nain Airport Saglek Cape Mercy Kimmirut Airport Aupaluk Airport Salluit Airport Kangiqsualujjuaq Airport Fort Ross
Legend: buoyBuoy land stationLand Station